Terminal Aerodrome Forecast
Issued by NWS

Home | Current Version | Previous Version | Text Only | Print | Product List | Glossary On
Versions: 1 2 3 4 5 6 7 8 9 10 11 12 13 14 15
000
FTUS43 KEAX 302300
TAFMKC
TAF
KMKC 302324Z 3100/3124 21014G19KT P6SM SKC
     FM310400 VRB05KT P6SM SKC
     FM311500 07006KT P6SM SKC=

USA.gov is the U.S. government's official web portal to all federal, state and local government web resources and services.